createdAt,value
2022-10-09T00:01:10.994Z,35.15
2022-10-09T00:03:39.603Z,39.13
2022-10-09T00:06:08.112Z,45.75
2022-10-09T00:08:36.063Z,39.25
2022-10-09T00:11:11.145Z,37.45
2022-10-09T00:13:38.082Z,52.05
2022-10-09T00:16:07.144Z,40.50
2022-10-09T00:18:34.648Z,39.60
2022-10-09T00:21:01.702Z,38.63
2022-10-09T00:23:28.600Z,37.17
2022-10-09T00:25:59.077Z,37.90
2022-10-09T00:28:27.811Z,34.75
2022-10-09T00:30:54.740Z,27.92
2022-10-09T00:33:22.002Z,30.02
2022-10-09T00:35:49.139Z,26.83
2022-10-09T00:38:16.673Z,28.80
2022-10-09T00:40:43.515Z,30.67
2022-10-09T00:43:17.360Z,30.20
2022-10-09T00:45:56.604Z,29.70
2022-10-09T00:48:23.890Z,28.65
2022-10-09T00:50:56.738Z,28.92
2022-10-09T00:53:27.054Z,26.35
2022-10-09T00:55:54.308Z,21.75
2022-10-09T00:58:22.424Z,21.38
2022-10-09T01:00:49.494Z,29.85
2022-10-09T01:03:16.442Z,31.70
2022-10-09T01:06:24.786Z,28.55
2022-10-09T01:09:05.700Z,24.85
2022-10-09T01:11:38.474Z,22.13
2022-10-09T01:14:17.335Z,32.13
2022-10-09T01:16:55.815Z,31.70
2022-10-09T01:20:01.069Z,24.98
2022-10-09T01:23:03.773Z,38.88
2022-10-09T01:25:40.227Z,42.95
2022-10-09T01:28:08.560Z,38.00
2022-10-09T01:30:35.615Z,43.65
2022-10-09T01:33:03.670Z,40.42
2022-10-09T01:35:31.862Z,67.85
2022-10-09T01:38:00.185Z,81.38
2022-10-09T01:40:28.584Z,63.58
2022-10-09T01:42:56.317Z,43.05
2022-10-09T01:45:23.162Z,55.80
2022-10-09T01:47:50.035Z,97.55
2022-10-09T01:50:30.625Z,63.47
2022-10-09T01:53:03.443Z,63.85
2022-10-09T01:55:49.713Z,55.50
2022-10-09T01:58:22.245Z,76.40
2022-10-09T02:01:13.157Z,127.80
2022-10-09T02:03:43.033Z,61.10
2022-10-09T02:06:12.868Z,85.28
2022-10-09T02:08:41.580Z,81.45
2022-10-09T02:11:08.513Z,69.50
2022-10-09T02:13:36.232Z,57.47
2022-10-09T02:16:11.778Z,73.35
2022-10-09T02:18:43.307Z,55.50
2022-10-09T02:21:15.119Z,53.83
2022-10-09T02:23:44.498Z,43.80
2022-10-09T02:26:12.725Z,42.30
2022-10-09T02:28:45.081Z,43.05
2022-10-09T02:31:30.894Z,28.15
2022-10-09T02:33:59.373Z,40.13
2022-10-09T02:36:27.031Z,25.60
2022-10-09T02:38:55.504Z,25.25
2022-10-09T02:41:23.004Z,21.20
2022-10-09T02:43:50.327Z,23.33
2022-10-09T02:46:17.534Z,24.65
2022-10-09T02:48:44.717Z,31.30
2022-10-09T02:51:11.868Z,30.85
2022-10-09T02:53:38.647Z,19.88
2022-10-09T02:56:05.752Z,37.25
2022-10-09T02:58:34.349Z,30.60
2022-10-09T03:01:01.527Z,33.00
2022-10-09T03:03:28.303Z,36.75
2022-10-09T03:06:12.771Z,28.13
2022-10-09T03:08:42.412Z,33.80
2022-10-09T03:11:10.294Z,30.35
2022-10-09T03:13:37.255Z,34.80
2022-10-09T03:16:18.221Z,36.58
2022-10-09T03:18:46.557Z,31.10
2022-10-09T03:21:17.436Z,37.28
2022-10-09T03:23:44.822Z,41.65
2022-10-09T03:26:14.956Z,34.03
2022-10-09T03:28:44.564Z,36.10
2022-10-09T03:31:22.553Z,27.52
2022-10-09T03:33:54.708Z,27.88
2022-10-09T03:36:21.433Z,23.55
2022-10-09T03:38:48.160Z,28.65
2022-10-09T03:41:15.009Z,31.40
2022-10-09T03:43:41.711Z,33.75
2022-10-09T03:46:09.204Z,33.63
2022-10-09T03:48:36.879Z,37.75
2022-10-09T03:51:04.261Z,32.83
2022-10-09T03:53:31.701Z,42.03
2022-10-09T03:55:58.611Z,40.20
2022-10-09T03:58:25.452Z,35.42
2022-10-09T04:00:53.209Z,39.92
2022-10-09T04:03:20.861Z,33.53
2022-10-09T04:05:47.617Z,42.35
2022-10-09T04:08:14.425Z,30.10
2022-10-09T04:10:41.446Z,34.92
2022-10-09T04:13:08.161Z,37.47
2022-10-09T04:15:35.513Z,32.50
2022-10-09T04:18:02.485Z,36.80
2022-10-09T04:20:29.267Z,42.50
2022-10-09T04:22:56.057Z,42.25
2022-10-09T04:25:22.895Z,38.72
2022-10-09T04:27:49.704Z,35.38
2022-10-09T04:30:16.726Z,34.42
2022-10-09T04:32:43.589Z,32.47
2022-10-09T04:35:10.289Z,30.23
2022-10-09T04:37:37.070Z,30.60
2022-10-09T04:40:04.724Z,33.22
2022-10-09T04:42:31.449Z,34.17
2022-10-09T04:44:58.233Z,31.80
2022-10-09T04:47:25.088Z,39.45
2022-10-09T04:49:51.887Z,39.78
2022-10-09T04:52:18.601Z,31.95
2022-10-09T04:54:45.472Z,32.65
2022-10-09T04:57:12.325Z,31.27
2022-10-09T04:59:39.185Z,23.58
2022-10-09T05:02:06.140Z,18.50
2022-10-09T05:04:32.997Z,25.15
2022-10-09T05:06:59.797Z,26.42
2022-10-09T05:09:26.971Z,27.75
2022-10-09T05:11:53.860Z,22.58
2022-10-09T05:14:20.612Z,28.75
2022-10-09T05:17:12.630Z,32.13
2022-10-09T05:19:39.018Z,29.33
2022-10-09T05:22:05.860Z,25.77
2022-10-09T05:24:32.569Z,22.50
2022-10-09T05:27:01.955Z,28.38
2022-10-09T05:29:45.052Z,26.08
2022-10-09T05:32:25.746Z,17.40
2022-10-09T05:34:57.497Z,28.15
2022-10-09T05:37:24.253Z,25.60
2022-10-09T05:39:50.937Z,22.15
2022-10-09T05:42:17.723Z,23.38
2022-10-09T05:44:44.461Z,26.48
2022-10-09T05:47:11.206Z,28.23
2022-10-09T05:49:37.943Z,26.27
2022-10-09T05:52:04.752Z,29.02
2022-10-09T05:54:32.449Z,32.13
2022-10-09T05:56:59.314Z,50.60
2022-10-09T05:59:26.076Z,27.77
2022-10-09T06:01:53.589Z,30.88
2022-10-09T06:04:23.293Z,33.70
2022-10-09T06:06:50.301Z,33.78
2022-10-09T06:09:19.404Z,33.55
2022-10-09T06:11:46.698Z,31.55
2022-10-09T06:14:14.007Z,25.90
2022-10-09T06:16:43.304Z,28.33
2022-10-09T06:19:15.662Z,30.67
2022-10-09T06:21:42.950Z,22.52
2022-10-09T06:24:18.460Z,28.55
2022-10-09T06:26:45.234Z,32.50
2022-10-09T06:29:12.048Z,35.88
2022-10-09T06:31:39.361Z,33.45
2022-10-09T06:34:06.085Z,33.35
2022-10-09T06:36:35.386Z,32.05
2022-10-09T06:39:05.632Z,29.73
2022-10-09T06:41:32.503Z,34.10
2022-10-09T06:44:01.462Z,31.52
2022-10-09T06:46:35.346Z,37.67
2022-10-09T06:49:03.403Z,27.63
2022-10-09T06:51:30.592Z,36.92
2022-10-09T06:53:59.674Z,41.47
2022-10-09T06:56:29.422Z,50.17
2022-10-09T06:58:59.190Z,61.92
2022-10-09T07:01:30.589Z,63.58
2022-10-09T07:04:07.285Z,56.90
2022-10-09T07:06:38.524Z,102.80
2022-10-09T07:09:07.888Z,69.68
2022-10-09T07:11:43.511Z,53.00
2022-10-09T07:14:11.627Z,52.10
2022-10-09T07:16:41.202Z,36.80
2022-10-09T07:19:11.330Z,32.72
2022-10-09T07:21:40.468Z,43.40
2022-10-09T07:24:07.540Z,72.47
2022-10-09T07:26:37.633Z,71.32
2022-10-09T07:29:06.652Z,56.97
2022-10-09T07:31:33.395Z,44.67
2022-10-09T07:34:00.431Z,32.10
2022-10-09T07:36:27.682Z,31.58
2022-10-09T07:38:56.438Z,29.77
2022-10-09T07:41:25.699Z,29.08
2022-10-09T07:43:53.211Z,30.08
2022-10-09T07:46:22.171Z,38.42
2022-10-09T07:48:49.655Z,26.80
2022-10-09T07:51:24.980Z,28.90
2022-10-09T07:53:52.339Z,32.63
2022-10-09T07:56:21.322Z,25.00
2022-10-09T07:58:53.015Z,26.85
2022-10-09T08:01:21.344Z,23.63
2022-10-09T08:03:49.172Z,28.13
2022-10-09T08:06:16.935Z,31.08
2022-10-09T08:08:44.112Z,25.95
2022-10-09T08:11:16.815Z,33.10
2022-10-09T08:13:45.445Z,25.75
2022-10-09T08:16:13.381Z,32.97
2022-10-09T08:18:40.297Z,24.08
2022-10-09T08:21:18.509Z,24.90
2022-10-09T08:23:45.609Z,28.33
2022-10-09T08:26:18.784Z,31.35
2022-10-09T08:28:54.367Z,32.47
2022-10-09T08:31:22.381Z,26.63
2022-10-09T08:33:52.884Z,23.98
2022-10-09T08:36:19.728Z,23.77
2022-10-09T08:38:48.139Z,31.75
2022-10-09T08:41:33.741Z,21.05
2022-10-09T08:44:11.460Z,34.13
2022-10-09T08:46:54.099Z,30.70
2022-10-09T08:49:30.012Z,25.75
2022-10-09T08:51:59.652Z,29.55
2022-10-09T08:54:38.451Z,32.30
2022-10-09T08:57:11.372Z,27.85
2022-10-09T08:59:38.412Z,29.70
2022-10-09T09:02:28.209Z,28.75
2022-10-09T09:05:04.133Z,24.52
2022-10-09T09:07:42.100Z,35.15
2022-10-09T09:10:29.241Z,33.88
2022-10-09T09:13:19.982Z,29.88
2022-10-09T09:15:46.976Z,26.98
2022-10-09T09:18:28.379Z,25.40
2022-10-09T09:20:58.643Z,25.95
2022-10-09T09:23:32.271Z,30.13
2022-10-09T09:25:59.777Z,27.95
2022-10-09T09:28:35.222Z,22.98
2022-10-09T09:31:22.798Z,27.40
2022-10-09T09:34:01.676Z,24.90
2022-10-09T09:36:33.766Z,22.98
2022-10-09T09:41:47.422Z,27.63
2022-10-09T09:44:17.080Z,27.70
2022-10-09T09:46:46.450Z,19.20
2022-10-09T09:49:23.995Z,21.50
2022-10-09T09:51:51.416Z,21.05
2022-10-09T09:54:24.928Z,15.70
2022-10-09T09:57:15.891Z,18.33
2022-10-09T09:59:44.314Z,20.02
2022-10-09T10:02:13.812Z,19.05
2022-10-09T10:04:58.367Z,22.38
2022-10-09T10:07:29.132Z,18.38
2022-10-09T10:10:23.963Z,15.82
2022-10-09T10:12:52.209Z,14.43
2022-10-09T10:15:25.651Z,15.43
2022-10-09T10:17:58.964Z,24.13
2022-10-09T10:20:27.395Z,29.65
2022-10-09T10:22:56.916Z,17.02
2022-10-09T10:25:33.891Z,16.83
2022-10-09T10:28:11.797Z,12.57
2022-10-09T10:30:39.547Z,21.85
2022-10-09T10:33:22.341Z,17.98
2022-10-09T10:35:52.811Z,17.08
2022-10-09T10:38:33.028Z,18.15
2022-10-09T10:41:08.958Z,18.77
2022-10-09T10:43:53.931Z,14.55
2022-10-09T10:46:37.146Z,14.68
2022-10-09T10:49:04.142Z,15.55
2022-10-09T10:51:46.529Z,14.50
2022-10-09T10:54:34.528Z,12.57
2022-10-09T10:57:21.974Z,14.38
2022-10-09T11:00:06.660Z,18.65
2022-10-09T11:02:56.876Z,15.70
2022-10-09T11:05:47.722Z,11.60
2022-10-09T11:08:44.754Z,19.10
2022-10-09T11:11:19.037Z,16.65
2022-10-09T11:13:56.815Z,13.88
2022-10-09T11:16:36.564Z,11.82
2022-10-09T11:19:33.627Z,15.35
2022-10-09T11:22:11.183Z,18.02
2022-10-09T11:24:54.587Z,12.68
2022-10-09T11:27:27.791Z,15.77
2022-10-09T11:30:09.782Z,12.45
2022-10-09T11:32:51.768Z,16.15
2022-10-09T11:35:24.547Z,11.98
2022-10-09T11:37:58.974Z,16.48
2022-10-09T11:40:40.315Z,14.75
2022-10-09T11:43:09.644Z,16.30
2022-10-09T11:48:48.125Z,11.23
2022-10-09T11:51:29.873Z,15.95
2022-10-09T11:53:58.637Z,14.80
2022-10-09T11:56:28.380Z,13.82
2022-10-09T11:59:04.636Z,16.63
2022-10-09T12:01:41.089Z,16.67
2022-10-09T12:04:13.856Z,12.20
2022-10-09T12:07:04.969Z,19.30
2022-10-09T12:09:45.399Z,13.00
2022-10-09T12:12:18.611Z,15.95
2022-10-09T12:14:48.666Z,18.55
2022-10-09T12:17:38.522Z,16.90
2022-10-09T12:20:16.608Z,15.43
2022-10-09T12:23:07.354Z,12.98
2022-10-09T12:25:44.592Z,11.63
2022-10-09T12:28:30.833Z,10.52
2022-10-09T12:31:00.661Z,11.50
2022-10-09T12:33:51.810Z,15.18
2022-10-09T12:36:30.355Z,25.65
2022-10-09T12:38:57.890Z,14.52
2022-10-09T12:41:33.139Z,19.70
2022-10-09T12:44:00.379Z,15.48
2022-10-09T12:46:36.217Z,15.63
2022-10-09T12:49:06.497Z,14.18
2022-10-09T12:51:34.363Z,17.50
2022-10-09T12:54:09.793Z,17.25
2022-10-09T12:56:39.287Z,11.27
2022-10-09T13:01:37.568Z,15.60
2022-10-09T13:04:08.440Z,16.40
2022-10-09T13:06:50.279Z,17.30
2022-10-09T13:09:24.225Z,12.77
2022-10-09T13:11:58.184Z,12.57
2022-10-09T13:14:34.097Z,13.80
2022-10-09T13:17:01.905Z,15.77
2022-10-09T13:19:31.350Z,15.48
2022-10-09T13:22:22.352Z,9.63
2022-10-09T13:24:54.967Z,13.88
2022-10-09T13:27:28.378Z,22.67
2022-10-09T13:29:55.818Z,19.63
2022-10-09T13:32:24.400Z,14.38
2022-10-09T13:34:55.290Z,12.30
2022-10-09T13:37:25.609Z,8.52
2022-10-09T13:39:58.300Z,13.32
2022-10-09T13:42:33.667Z,15.80
2022-10-09T13:45:00.573Z,14.88
2022-10-09T13:47:27.304Z,23.00
2022-10-09T13:49:54.396Z,13.02
2022-10-09T13:52:21.317Z,11.05
2022-10-09T13:54:48.356Z,7.82
2022-10-09T13:57:15.078Z,5.90
2022-10-09T13:59:42.511Z,10.10
2022-10-09T14:02:11.260Z,19.73
2022-10-09T14:04:38.179Z,23.63
2022-10-09T14:07:05.193Z,16.95
2022-10-09T14:09:31.931Z,7.60
2022-10-09T14:11:59.011Z,9.00
2022-10-09T14:14:25.751Z,19.40
2022-10-09T14:17:01.866Z,17.73
2022-10-09T14:19:28.779Z,9.73
2022-10-09T14:21:56.156Z,8.07
2022-10-09T14:24:24.301Z,11.50
2022-10-09T14:26:51.943Z,15.48
2022-10-09T14:29:18.842Z,15.90
2022-10-09T14:31:45.767Z,11.18
2022-10-09T14:34:15.917Z,12.68
2022-10-09T14:36:42.716Z,17.27
2022-10-09T14:39:09.708Z,11.02
2022-10-09T14:41:37.885Z,12.85
2022-10-09T14:44:05.336Z,16.85
2022-10-09T14:46:37.772Z,19.17
2022-10-09T14:49:07.619Z,13.07
2022-10-09T14:51:37.360Z,11.85
2022-10-09T14:56:31.286Z,12.10
2022-10-09T14:59:00.626Z,13.52
2022-10-09T15:01:29.525Z,9.40
2022-10-09T15:03:56.455Z,18.13
2022-10-09T15:06:27.749Z,13.93
2022-10-09T15:08:59.253Z,11.43
2022-10-09T15:11:30.165Z,12.73
2022-10-09T15:13:57.149Z,9.55
2022-10-09T15:16:25.115Z,24.67
2022-10-09T15:18:55.862Z,12.88
2022-10-09T15:21:26.045Z,8.93
2022-10-09T15:23:58.484Z,14.15
2022-10-09T15:26:27.132Z,7.00
2022-10-09T15:28:53.864Z,15.02
2022-10-09T15:31:28.233Z,16.33
2022-10-09T15:33:56.435Z,12.95
2022-10-09T15:36:24.024Z,13.93
2022-10-09T15:38:51.172Z,13.82
2022-10-09T15:41:21.273Z,14.82
2022-10-09T15:43:48.252Z,20.92
2022-10-09T15:46:15.126Z,11.13
2022-10-09T15:48:42.056Z,13.40
2022-10-09T15:51:13.425Z,17.42
2022-10-09T15:53:42.509Z,18.20
2022-10-09T15:56:10.571Z,9.32
2022-10-09T15:58:37.389Z,15.98
2022-10-09T16:01:06.703Z,15.30
2022-10-09T16:03:36.958Z,14.05
2022-10-09T16:06:07.758Z,11.88
2022-10-09T16:08:35.144Z,18.85
2022-10-09T16:13:43.791Z,14.68
2022-10-09T16:16:14.740Z,12.57
2022-10-09T16:18:41.601Z,11.40
2022-10-09T16:21:11.033Z,12.95
2022-10-09T16:23:38.177Z,7.90
2022-10-09T16:26:05.480Z,13.15
2022-10-09T16:28:33.421Z,16.70
2022-10-09T16:31:00.760Z,16.92
2022-10-09T16:33:27.675Z,20.80
2022-10-09T16:35:54.456Z,11.90
2022-10-09T16:38:21.434Z,15.63
2022-10-09T16:41:01.459Z,19.20
2022-10-09T16:43:29.436Z,23.85
2022-10-09T16:45:56.134Z,19.85
2022-10-09T16:48:22.834Z,17.48
2022-10-09T16:50:49.760Z,23.15
2022-10-09T16:53:16.640Z,12.75
2022-10-09T16:55:43.464Z,12.20
2022-10-09T16:58:10.281Z,13.68
2022-10-09T17:00:37.232Z,13.05
2022-10-09T17:03:04.111Z,14.30
2022-10-09T17:05:31.035Z,13.63
2022-10-09T17:07:57.751Z,13.40
2022-10-09T17:10:24.450Z,18.38
2022-10-09T17:12:51.296Z,14.07
2022-10-09T17:15:18.447Z,21.15
2022-10-09T17:17:45.213Z,23.92
2022-10-09T17:20:13.157Z,22.45
2022-10-09T17:22:39.857Z,17.08
2022-10-09T17:25:07.012Z,16.17
2022-10-09T17:27:33.818Z,15.48
2022-10-09T17:30:00.522Z,13.13
2022-10-09T17:32:27.505Z,20.15
2022-10-09T17:34:54.298Z,21.67
2022-10-09T17:37:21.045Z,11.52
2022-10-09T17:39:52.010Z,18.42
2022-10-09T17:42:19.267Z,9.77
2022-10-09T17:44:46.029Z,11.85
2022-10-09T17:47:12.833Z,21.90
2022-10-09T17:49:39.725Z,16.50
2022-10-09T17:52:06.604Z,15.15
2022-10-09T17:54:33.433Z,18.20
2022-10-09T17:57:01.561Z,15.30
2022-10-09T17:59:28.414Z,16.08
2022-10-09T18:01:55.191Z,18.08
2022-10-09T18:04:22.321Z,20.20
2022-10-09T18:06:49.286Z,18.17
2022-10-09T18:09:16.232Z,16.63
2022-10-09T18:11:43.583Z,21.55
2022-10-09T18:14:10.384Z,17.25
2022-10-09T18:16:38.267Z,16.27
2022-10-09T18:19:12.522Z,21.45
2022-10-09T18:21:45.198Z,16.65
2022-10-09T18:24:13.245Z,18.25
2022-10-09T18:26:40.574Z,16.67
2022-10-09T18:29:07.358Z,14.45
2022-10-09T18:31:34.327Z,23.00
2022-10-09T18:34:01.347Z,18.40
2022-10-09T18:36:34.746Z,15.30
2022-10-09T18:39:05.672Z,13.73
2022-10-09T18:41:32.646Z,12.20
2022-10-09T18:44:00.521Z,50.75
2022-10-09T18:46:34.083Z,13.43
2022-10-09T18:49:01.355Z,15.75
2022-10-09T18:51:28.939Z,15.70
2022-10-09T18:54:00.617Z,16.42
2022-10-09T18:56:32.517Z,14.55
2022-10-09T18:59:00.994Z,18.90
2022-10-09T19:01:27.826Z,22.95
2022-10-09T19:03:54.682Z,18.35
2022-10-09T19:06:23.182Z,8.90
2022-10-09T19:08:50.351Z,19.15
2022-10-09T19:11:17.306Z,13.32
2022-10-09T19:13:44.956Z,13.60
2022-10-09T19:16:12.071Z,11.85
2022-10-09T19:18:39.671Z,12.88
2022-10-09T19:21:07.115Z,16.25
2022-10-09T19:23:33.980Z,11.73
2022-10-09T19:26:00.877Z,13.80
2022-10-09T19:28:31.234Z,18.35
2022-10-09T19:31:02.714Z,21.98
2022-10-09T19:33:29.848Z,16.95
2022-10-09T19:35:57.265Z,9.80
2022-10-09T19:38:24.767Z,14.45
2022-10-09T19:40:51.636Z,10.63
2022-10-09T19:43:19.662Z,21.30
2022-10-09T19:45:49.368Z,10.75
2022-10-09T19:48:17.842Z,7.15
2022-10-09T19:50:45.688Z,17.88
2022-10-09T19:53:13.762Z,9.50
2022-10-09T19:55:40.534Z,13.27
2022-10-09T19:58:07.512Z,8.40
2022-10-09T20:00:34.445Z,17.88
2022-10-09T20:03:01.268Z,17.77
2022-10-09T20:05:28.038Z,28.17
2022-10-09T20:07:54.802Z,32.80
2022-10-09T20:10:21.516Z,16.15
2022-10-09T20:12:48.706Z,17.10
2022-10-09T20:15:15.863Z,9.68
2022-10-09T20:17:42.841Z,13.82
2022-10-09T20:20:09.941Z,12.07
2022-10-09T20:22:36.737Z,11.90
2022-10-09T20:25:05.309Z,7.63
2022-10-09T20:27:32.006Z,11.65
2022-10-09T20:29:58.908Z,9.05
2022-10-09T20:32:25.852Z,8.88
2022-10-09T20:34:52.615Z,15.20
2022-10-09T20:37:19.516Z,9.35
2022-10-09T20:39:46.337Z,6.47
2022-10-09T20:42:14.260Z,14.00
2022-10-09T20:44:42.588Z,20.98
2022-10-09T20:47:09.367Z,12.35
2022-10-09T20:49:36.138Z,12.60
2022-10-09T20:52:03.248Z,11.05
2022-10-09T20:54:30.581Z,9.63
2022-10-09T20:56:58.748Z,9.55
2022-10-09T20:59:25.815Z,8.10
2022-10-09T21:01:52.548Z,11.27
2022-10-09T21:04:19.387Z,14.48
2022-10-09T21:06:46.535Z,13.95
2022-10-09T21:09:13.597Z,9.73
2022-10-09T21:11:41.670Z,10.13
2022-10-09T21:14:09.951Z,9.40
2022-10-09T21:16:36.818Z,7.82
2022-10-09T21:19:05.025Z,11.60
2022-10-09T21:21:34.738Z,9.48
2022-10-09T21:24:02.432Z,9.27
2022-10-09T21:26:30.762Z,12.38
2022-10-09T21:28:59.826Z,9.23
2022-10-09T21:31:29.298Z,13.70
2022-10-09T21:33:56.953Z,9.77
2022-10-09T21:36:29.614Z,9.40
2022-10-09T21:38:56.356Z,9.88
2022-10-09T21:41:23.193Z,8.02
2022-10-09T21:43:50.131Z,6.65
2022-10-09T21:46:16.870Z,9.35
2022-10-09T21:48:43.743Z,18.38
2022-10-09T21:51:10.728Z,19.50
2022-10-09T21:53:37.611Z,11.60
2022-10-09T21:56:05.420Z,9.32
2022-10-09T21:58:32.310Z,15.23
2022-10-09T22:01:01.279Z,12.23
2022-10-09T22:03:30.271Z,8.45
2022-10-09T22:05:57.247Z,11.53
2022-10-09T22:08:24.356Z,17.15
2022-10-09T22:10:51.495Z,15.27
2022-10-09T22:13:20.086Z,13.85
2022-10-09T22:15:50.955Z,14.32
2022-10-09T22:18:18.546Z,11.93
2022-10-09T22:20:49.156Z,10.45
2022-10-09T22:23:18.036Z,11.60
2022-10-09T22:25:44.808Z,11.80
2022-10-09T22:28:11.634Z,16.35
2022-10-09T22:30:39.469Z,12.27
2022-10-09T22:33:06.180Z,9.95
2022-10-09T22:35:33.013Z,14.25
2022-10-09T22:37:59.711Z,13.70
2022-10-09T22:40:26.430Z,13.10
2022-10-09T22:42:53.466Z,9.50
2022-10-09T22:45:20.457Z,14.23
2022-10-09T22:47:48.038Z,13.65
2022-10-09T22:50:15.103Z,8.95
2022-10-09T22:52:41.805Z,8.52
2022-10-09T22:55:09.160Z,12.98
2022-10-09T22:57:36.085Z,12.40
2022-10-09T23:00:03.474Z,16.27
2022-10-09T23:02:31.466Z,7.95
2022-10-09T23:04:58.286Z,10.52
2022-10-09T23:07:25.060Z,6.10
2022-10-09T23:09:51.774Z,12.07
2022-10-09T23:12:18.714Z,13.50
2022-10-09T23:14:45.657Z,12.68
2022-10-09T23:17:12.359Z,13.57
2022-10-09T23:19:39.254Z,10.07
2022-10-09T23:22:06.024Z,10.60
2022-10-09T23:24:32.744Z,11.75
2022-10-09T23:26:59.556Z,8.85
2022-10-09T23:29:26.236Z,7.90
2022-10-09T23:31:53.639Z,12.52
2022-10-09T23:34:20.554Z,10.45
2022-10-09T23:36:47.296Z,11.85
2022-10-09T23:39:14.040Z,13.57
2022-10-09T23:41:40.916Z,13.65
2022-10-09T23:44:07.670Z,10.35
2022-10-09T23:46:34.590Z,11.75
2022-10-09T23:49:01.848Z,10.50
2022-10-09T23:51:28.815Z,17.17
2022-10-09T23:53:56.493Z,12.95
2022-10-09T23:56:28.050Z,8.45
2022-10-09T23:58:56.155Z,13.45
